createdAt,value
2023-04-17T00:01:24.186Z,26.23
2023-04-17T00:03:52.761Z,27.70
2023-04-17T00:06:20.128Z,27.05
2023-04-17T00:08:47.120Z,28.65
2023-04-17T00:11:14.120Z,26.25
2023-04-17T00:13:41.166Z,23.48
2023-04-17T00:16:10.807Z,26.55
2023-04-17T00:21:04.749Z,23.88
2023-04-17T00:23:32.194Z,26.10
2023-04-17T00:25:59.097Z,23.98
2023-04-17T00:28:26.046Z,22.80
2023-04-17T00:30:53.165Z,24.73
2023-04-17T00:33:20.415Z,27.65
2023-04-17T00:35:48.101Z,24.98
2023-04-17T00:38:15.867Z,27.85
2023-04-17T00:40:44.097Z,27.88
2023-04-17T00:43:11.312Z,27.80
2023-04-17T00:45:38.288Z,23.70
2023-04-17T00:48:07.693Z,26.75
2023-04-17T00:50:35.929Z,24.02
2023-04-17T00:53:03.625Z,24.88
2023-04-17T00:55:32.246Z,25.05
2023-04-17T00:58:00.110Z,23.70
2023-04-17T01:00:27.221Z,23.83
2023-04-17T01:02:58.069Z,23.98
2023-04-17T01:05:26.252Z,25.50
2023-04-17T01:07:54.604Z,25.10
2023-04-17T01:10:21.968Z,24.17
2023-04-17T01:13:01.904Z,27.33
2023-04-17T01:15:29.065Z,24.98
2023-04-17T01:17:56.303Z,26.80
2023-04-17T01:20:23.447Z,29.80
2023-04-17T01:22:51.395Z,27.38
2023-04-17T01:25:19.577Z,25.80
2023-04-17T01:27:48.921Z,25.42
2023-04-17T01:30:16.199Z,27.48
2023-04-17T01:32:55.745Z,29.73
2023-04-17T01:35:23.416Z,29.65
2023-04-17T01:37:50.453Z,30.83
2023-04-17T01:40:17.500Z,28.48
2023-04-17T01:42:45.497Z,30.83
2023-04-17T01:45:12.478Z,29.83
2023-04-17T01:47:40.746Z,30.02
2023-04-17T01:50:09.336Z,26.17
2023-04-17T01:52:37.129Z,30.73
2023-04-17T01:55:04.503Z,27.15
2023-04-17T01:57:32.851Z,29.40
2023-04-17T01:59:59.848Z,31.05
2023-04-17T02:02:26.994Z,27.80
2023-04-17T02:04:54.688Z,33.15
2023-04-17T02:07:21.835Z,30.20
2023-04-17T02:09:48.949Z,32.35
2023-04-17T02:12:16.414Z,29.08
2023-04-17T02:14:43.441Z,29.73
2023-04-17T02:17:10.786Z,32.58
2023-04-17T02:19:37.805Z,35.75
2023-04-17T02:22:23.320Z,30.35
2023-04-17T02:24:51.754Z,28.30
2023-04-17T02:27:19.964Z,28.55
2023-04-17T02:29:46.955Z,34.25
2023-04-17T02:32:16.759Z,32.20
2023-04-17T02:34:44.018Z,32.75
2023-04-17T02:37:11.763Z,33.53
2023-04-17T02:39:38.796Z,31.33
2023-04-17T02:42:05.917Z,34.67
2023-04-17T02:44:32.942Z,35.38
2023-04-17T02:46:59.997Z,32.70
2023-04-17T02:49:30.550Z,33.42
2023-04-17T02:51:58.766Z,31.48
2023-04-17T02:54:25.808Z,30.40
2023-04-17T02:56:53.188Z,31.02
2023-04-17T02:59:20.187Z,33.22
2023-04-17T03:01:47.223Z,33.67
2023-04-17T03:04:17.128Z,31.95
2023-04-17T03:06:44.192Z,30.08
2023-04-17T03:09:12.567Z,31.63
2023-04-17T03:11:39.919Z,30.67
2023-04-17T03:14:06.894Z,30.35
2023-04-17T03:16:33.871Z,28.30
2023-04-17T03:19:03.437Z,30.92
2023-04-17T03:21:31.513Z,31.58
2023-04-17T03:23:59.354Z,31.73
2023-04-17T03:26:26.627Z,33.97
2023-04-17T03:28:53.670Z,32.65
2023-04-17T03:31:24.471Z,31.80
2023-04-17T03:33:51.926Z,32.83
2023-04-17T03:36:19.082Z,28.17
2023-04-17T03:38:46.430Z,31.02
2023-04-17T03:41:16.279Z,27.70
2023-04-17T03:43:43.372Z,30.30
2023-04-17T03:46:10.594Z,29.95
2023-04-17T03:48:38.654Z,29.55
2023-04-17T03:51:06.572Z,34.15
2023-04-17T03:53:34.829Z,32.53
2023-04-17T03:56:04.051Z,31.92
2023-04-17T03:58:36.104Z,31.10
2023-04-17T04:01:04.256Z,33.63
2023-04-17T04:03:35.966Z,29.02
2023-04-17T04:06:03.746Z,31.98
2023-04-17T04:08:30.840Z,35.15
2023-04-17T04:10:57.804Z,34.35
2023-04-17T04:13:34.554Z,37.33
2023-04-17T04:16:13.669Z,34.60
2023-04-17T04:18:41.519Z,40.00
2023-04-17T04:21:08.688Z,48.85
2023-04-17T04:23:41.248Z,38.47
2023-04-17T04:26:09.682Z,45.60
2023-04-17T04:28:44.198Z,44.53
2023-04-17T04:31:30.636Z,48.58
2023-04-17T04:33:59.901Z,38.83
2023-04-17T04:36:30.245Z,36.10
2023-04-17T04:40:15.176Z,34.78
2023-04-17T04:42:43.121Z,34.83
2023-04-17T04:45:16.408Z,34.00
2023-04-17T04:47:44.938Z,36.15
2023-04-17T04:50:12.850Z,36.30
2023-04-17T04:52:39.898Z,35.35
2023-04-17T04:55:37.732Z,28.38
2023-04-17T04:58:05.237Z,28.58
2023-04-17T05:00:33.951Z,23.93
2023-04-17T05:03:01.555Z,29.38
2023-04-17T05:05:29.578Z,34.13
2023-04-17T05:07:56.674Z,32.70
2023-04-17T05:10:28.055Z,29.10
2023-04-17T05:12:59.834Z,30.02
2023-04-17T05:15:27.419Z,37.50
2023-04-17T05:17:54.791Z,36.10
2023-04-17T05:20:22.773Z,27.63
2023-04-17T05:22:54.492Z,26.92
2023-04-17T05:25:23.500Z,25.90
2023-04-17T05:27:51.398Z,30.42
2023-04-17T05:30:18.730Z,27.70
2023-04-17T05:32:51.989Z,26.48
2023-04-17T05:35:38.463Z,22.95
2023-04-17T05:38:08.176Z,24.60
2023-04-17T05:40:35.677Z,25.52
2023-04-17T05:43:08.364Z,31.17
2023-04-17T05:45:36.461Z,29.08
2023-04-17T05:48:03.792Z,30.70
2023-04-17T05:50:30.831Z,28.23
2023-04-17T05:52:57.935Z,29.92
2023-04-17T05:55:31.516Z,25.88
2023-04-17T05:58:05.640Z,26.00
2023-04-17T06:00:38.195Z,27.70
2023-04-17T06:03:08.488Z,32.90
2023-04-17T06:05:38.903Z,25.65
2023-04-17T06:08:07.158Z,28.23
2023-04-17T06:10:34.165Z,27.15
2023-04-17T06:13:01.588Z,26.60
2023-04-17T06:15:29.456Z,25.33
2023-04-17T06:17:56.567Z,29.15
2023-04-17T06:20:23.746Z,28.23
2023-04-17T06:22:50.954Z,26.85
2023-04-17T06:25:18.348Z,30.83
2023-04-17T06:27:45.905Z,26.27
2023-04-17T06:30:13.483Z,29.52
2023-04-17T06:32:49.162Z,32.70
2023-04-17T06:35:16.684Z,28.15
2023-04-17T06:37:48.527Z,30.02
2023-04-17T06:40:15.539Z,33.00
2023-04-17T06:42:42.642Z,31.50
2023-04-17T06:45:13.706Z,28.08
2023-04-17T06:47:42.514Z,34.08
2023-04-17T06:50:09.997Z,36.60
2023-04-17T06:52:37.017Z,32.35
2023-04-17T06:55:04.447Z,33.60
2023-04-17T06:57:31.379Z,45.10
2023-04-17T06:59:58.302Z,36.13
2023-04-17T07:02:25.450Z,37.58
2023-04-17T07:04:54.974Z,35.10
2023-04-17T07:07:22.109Z,29.50
2023-04-17T07:09:49.116Z,31.92
2023-04-17T07:12:16.041Z,34.30
2023-04-17T07:14:43.003Z,27.08
2023-04-17T07:17:10.107Z,27.50
2023-04-17T07:19:38.173Z,32.17
2023-04-17T07:22:05.886Z,34.95
2023-04-17T07:24:35.138Z,29.67
2023-04-17T07:27:03.493Z,29.70
2023-04-17T07:29:30.812Z,31.52
2023-04-17T07:31:57.972Z,25.05
2023-04-17T07:34:51.501Z,23.35
2023-04-17T07:37:18.578Z,18.45
2023-04-17T07:39:48.187Z,20.98
2023-04-17T07:42:16.548Z,25.38
2023-04-17T07:44:43.598Z,24.55
2023-04-17T07:47:10.697Z,24.40
2023-04-17T07:49:39.696Z,23.05
2023-04-17T07:52:06.634Z,23.33
2023-04-17T07:54:33.610Z,22.73
2023-04-17T07:57:03.009Z,23.80
2023-04-17T07:59:30.866Z,22.90
2023-04-17T08:01:57.968Z,22.83
2023-04-17T08:04:26.216Z,21.90
2023-04-17T08:06:53.488Z,23.02
2023-04-17T08:09:22.301Z,26.02
2023-04-17T08:11:56.805Z,29.25
2023-04-17T08:14:25.262Z,24.48
2023-04-17T08:16:52.463Z,26.08
2023-04-17T08:19:19.453Z,27.48
2023-04-17T08:21:50.771Z,25.13
2023-04-17T08:24:19.781Z,26.48
2023-04-17T08:26:47.426Z,23.25
2023-04-17T08:29:14.667Z,21.05
2023-04-17T08:31:42.029Z,23.60
2023-04-17T08:34:14.503Z,25.02
2023-04-17T08:36:43.130Z,20.05
2023-04-17T08:39:12.593Z,22.13
2023-04-17T08:41:54.122Z,23.52
2023-04-17T08:44:24.223Z,24.55
2023-04-17T08:46:51.880Z,28.20
2023-04-17T08:49:19.050Z,24.45
2023-04-17T08:51:47.215Z,19.85
2023-04-17T08:54:14.224Z,21.27
2023-04-17T08:56:41.163Z,18.67
2023-04-17T08:59:08.132Z,17.77
2023-04-17T09:01:35.926Z,20.58
2023-04-17T09:04:03.252Z,17.67
2023-04-17T09:06:50.088Z,20.45
2023-04-17T09:09:21.750Z,17.27
2023-04-17T09:12:09.846Z,17.42
2023-04-17T09:14:36.993Z,18.17
2023-04-17T09:17:03.949Z,17.88
2023-04-17T09:19:32.843Z,15.65
2023-04-17T09:22:22.255Z,15.98
2023-04-17T09:24:49.602Z,16.38
2023-04-17T09:27:28.376Z,14.60
2023-04-17T09:29:59.618Z,14.93
2023-04-17T09:32:27.633Z,14.00
2023-04-17T09:34:57.051Z,12.68
2023-04-17T09:37:24.392Z,15.27
2023-04-17T09:40:02.511Z,14.70
2023-04-17T09:42:29.546Z,14.20
2023-04-17T09:44:57.963Z,15.98
2023-04-17T09:47:25.146Z,16.38
2023-04-17T09:49:53.114Z,14.38
2023-04-17T09:52:23.587Z,13.07
2023-04-17T09:54:51.419Z,12.52
2023-04-17T09:57:18.783Z,13.07
2023-04-17T09:59:49.457Z,13.68
2023-04-17T10:02:18.358Z,11.52
2023-04-17T10:04:46.785Z,14.38
2023-04-17T10:07:14.129Z,12.20
2023-04-17T10:09:42.213Z,15.65
2023-04-17T10:12:17.872Z,13.77
2023-04-17T10:14:48.502Z,12.00
2023-04-17T10:17:28.661Z,18.65
2023-04-17T10:19:56.045Z,15.80
2023-04-17T10:22:24.398Z,19.05
2023-04-17T10:25:10.874Z,16.25
2023-04-17T10:27:37.848Z,14.48
2023-04-17T10:30:12.701Z,13.98
2023-04-17T10:32:42.125Z,13.90
2023-04-17T10:35:18.448Z,12.02
2023-04-17T10:37:51.224Z,12.85
2023-04-17T10:40:27.241Z,13.50
2023-04-17T10:43:13.252Z,10.57
2023-04-17T10:46:04.587Z,11.73
2023-04-17T10:48:49.748Z,13.13
2023-04-17T10:51:27.248Z,12.45
2023-04-17T10:53:56.987Z,11.18
2023-04-17T10:59:03.963Z,12.90
2023-04-17T11:01:31.935Z,12.13
2023-04-17T11:03:59.860Z,13.52
2023-04-17T11:06:28.908Z,11.82
2023-04-17T11:08:57.607Z,12.07
2023-04-17T11:11:40.066Z,11.68
2023-04-17T11:14:15.251Z,12.68
2023-04-17T11:16:44.308Z,12.35
2023-04-17T11:19:13.585Z,10.82
2023-04-17T11:21:43.536Z,11.13
2023-04-17T11:26:47.731Z,13.50
2023-04-17T11:29:18.791Z,10.23
2023-04-17T11:31:47.019Z,9.30
2023-04-17T11:34:15.689Z,12.95
2023-04-17T11:37:00.057Z,10.65
2023-04-17T11:39:31.263Z,9.02
2023-04-17T11:41:58.506Z,9.48
2023-04-17T11:44:26.017Z,13.55
2023-04-17T11:46:58.860Z,10.75
2023-04-17T11:49:39.139Z,10.45
2023-04-17T11:52:06.267Z,10.63
2023-04-17T11:54:37.308Z,11.02
2023-04-17T11:57:07.321Z,11.63
2023-04-17T11:59:38.751Z,11.82
2023-04-17T12:02:07.679Z,10.05
2023-04-17T12:04:36.940Z,10.77
2023-04-17T12:07:05.911Z,10.68
2023-04-17T12:09:34.202Z,12.18
2023-04-17T12:12:03.995Z,11.18
2023-04-17T12:14:31.522Z,11.27
2023-04-17T12:16:58.849Z,10.98
2023-04-17T12:19:28.110Z,10.95
2023-04-17T12:21:55.792Z,15.65
2023-04-17T12:24:25.188Z,12.32
2023-04-17T12:26:53.253Z,13.30
2023-04-17T12:29:29.396Z,12.68
2023-04-17T12:32:07.947Z,19.65
2023-04-17T12:34:35.097Z,10.85
2023-04-17T12:37:02.076Z,13.40
2023-04-17T12:39:29.107Z,13.77
2023-04-17T12:41:56.383Z,14.23
2023-04-17T12:44:23.425Z,17.35
2023-04-17T12:46:50.386Z,10.18
2023-04-17T12:49:17.376Z,13.50
2023-04-17T12:51:44.573Z,7.45
2023-04-17T12:54:11.743Z,13.18
2023-04-17T12:56:38.920Z,12.45
2023-04-17T12:59:05.857Z,12.32
2023-04-17T13:01:32.917Z,14.07
2023-04-17T13:04:00.248Z,12.48
2023-04-17T13:06:28.262Z,12.45
2023-04-17T13:08:55.408Z,13.13
2023-04-17T13:11:22.694Z,12.98
2023-04-17T13:13:49.675Z,11.80
2023-04-17T13:16:16.635Z,12.30
2023-04-17T13:18:43.612Z,13.60
2023-04-17T13:21:10.592Z,12.38
2023-04-17T13:23:37.583Z,15.45
2023-04-17T13:26:04.670Z,12.32
2023-04-17T13:28:31.631Z,11.02
2023-04-17T13:30:58.570Z,14.77
2023-04-17T13:33:25.702Z,11.18
2023-04-17T13:35:53.980Z,12.00
2023-04-17T13:38:21.002Z,11.35
2023-04-17T13:40:47.952Z,11.00
2023-04-17T13:43:14.984Z,12.63
2023-04-17T13:45:42.446Z,11.63
2023-04-17T13:48:09.441Z,10.88
2023-04-17T13:50:36.517Z,12.80
2023-04-17T13:53:03.578Z,11.40
2023-04-17T13:55:30.530Z,9.77
2023-04-17T13:57:57.842Z,8.80
2023-04-17T14:00:25.321Z,8.80
2023-04-17T14:02:52.671Z,8.25
2023-04-17T14:05:27.137Z,9.85
2023-04-17T14:07:54.247Z,7.70
2023-04-17T14:10:21.166Z,9.68
2023-04-17T14:12:48.178Z,7.05
2023-04-17T14:15:15.546Z,7.72
2023-04-17T14:17:43.446Z,8.48
2023-04-17T14:20:11.308Z,8.18
2023-04-17T14:22:38.689Z,7.78
2023-04-17T14:25:06.207Z,6.20
2023-04-17T14:27:35.843Z,8.93
2023-04-17T14:30:03.000Z,6.38
2023-04-17T14:32:30.169Z,5.57
2023-04-17T14:34:57.109Z,6.43
2023-04-17T14:37:24.129Z,7.22
2023-04-17T14:39:51.094Z,7.13
2023-04-17T14:42:18.342Z,7.03
2023-04-17T14:44:45.656Z,6.38
2023-04-17T14:47:13.151Z,5.97
2023-04-17T14:49:40.234Z,7.60
2023-04-17T14:52:07.245Z,6.72
2023-04-17T14:54:35.562Z,6.03
2023-04-17T14:57:02.525Z,6.15
2023-04-17T14:59:29.643Z,5.57
2023-04-17T15:01:56.736Z,5.32
2023-04-17T15:04:24.013Z,6.40
2023-04-17T15:06:51.221Z,5.78
2023-04-17T15:09:18.359Z,5.68
2023-04-17T15:11:46.979Z,5.85
2023-04-17T15:14:14.039Z,5.78
2023-04-17T15:17:46.211Z,4.63
2023-04-17T15:20:13.543Z,5.20
2023-04-17T15:22:40.491Z,6.10
2023-04-17T15:25:07.915Z,4.72
2023-04-17T15:27:35.058Z,4.70
2023-04-17T15:30:04.980Z,5.18
2023-04-17T15:32:32.369Z,4.95
2023-04-17T15:34:59.530Z,4.35
2023-04-17T15:37:26.572Z,4.50
2023-04-17T15:39:53.754Z,5.25
2023-04-17T15:42:22.701Z,6.18
2023-04-17T15:44:49.917Z,7.17
2023-04-17T15:47:17.087Z,4.35
2023-04-17T15:49:46.254Z,4.55
2023-04-17T15:52:13.937Z,4.63
2023-04-17T15:54:41.103Z,3.95
2023-04-17T15:57:08.140Z,4.15
2023-04-17T15:59:35.299Z,4.43
2023-04-17T16:02:02.479Z,4.95
2023-04-17T16:04:29.916Z,4.70
2023-04-17T16:06:57.131Z,4.50
2023-04-17T16:09:24.418Z,4.70
2023-04-17T16:11:51.526Z,4.47
2023-04-17T16:14:28.756Z,5.35
2023-04-17T16:16:55.714Z,3.78
2023-04-17T16:19:22.684Z,6.53
2023-04-17T16:21:49.625Z,6.88
2023-04-17T16:24:16.644Z,9.05
2023-04-17T16:26:44.100Z,15.45
2023-04-17T16:29:11.367Z,5.70
2023-04-17T16:31:38.755Z,4.72
2023-04-17T16:34:05.884Z,8.55
2023-04-17T16:36:33.445Z,3.88
2023-04-17T16:39:02.473Z,3.92
2023-04-17T16:41:31.031Z,3.88
2023-04-17T16:43:58.547Z,3.58
2023-04-17T16:46:35.513Z,3.90
2023-04-17T16:49:14.245Z,4.45
2023-04-17T16:51:42.364Z,4.07
2023-04-17T16:54:09.521Z,4.53
2023-04-17T16:56:36.884Z,3.22
2023-04-17T16:59:04.892Z,5.35
2023-04-17T17:01:32.842Z,4.35
2023-04-17T17:04:00.036Z,4.50
2023-04-17T17:06:27.269Z,5.88
2023-04-17T17:08:55.242Z,3.70
2023-04-17T17:11:23.551Z,3.60
2023-04-17T17:13:51.819Z,3.60
2023-04-17T17:16:20.992Z,5.63
2023-04-17T17:18:48.827Z,7.13
2023-04-17T17:21:16.162Z,3.60
2023-04-17T17:23:43.356Z,3.13
2023-04-17T17:26:10.301Z,5.32
2023-04-17T17:28:37.671Z,3.88
2023-04-17T17:31:08.716Z,3.58
2023-04-17T17:33:36.815Z,4.78
2023-04-17T17:36:04.185Z,5.22
2023-04-17T17:38:32.778Z,5.07
2023-04-17T17:40:59.939Z,4.78
2023-04-17T17:43:29.993Z,6.03
2023-04-17T17:45:56.962Z,5.65
2023-04-17T17:48:23.980Z,5.43
2023-04-17T17:50:54.465Z,5.47
2023-04-17T17:53:26.178Z,7.28
2023-04-17T17:55:55.034Z,7.95
2023-04-17T17:58:22.360Z,7.13
2023-04-17T18:00:50.617Z,7.03
2023-04-17T18:03:18.191Z,8.27
2023-04-17T18:05:49.064Z,10.73
2023-04-17T18:08:17.334Z,9.45
2023-04-17T18:10:44.309Z,12.82
2023-04-17T18:13:11.321Z,14.63
2023-04-17T18:15:38.332Z,11.57
2023-04-17T18:18:05.379Z,15.52
2023-04-17T18:20:32.335Z,9.25
2023-04-17T18:22:59.337Z,13.27
2023-04-17T18:25:26.378Z,15.45
2023-04-17T18:27:53.710Z,16.17
2023-04-17T18:30:27.955Z,13.82
2023-04-17T18:32:55.003Z,16.05
2023-04-17T18:35:22.075Z,17.13
2023-04-17T18:37:49.044Z,16.92
2023-04-17T18:40:16.025Z,20.05
2023-04-17T18:42:42.997Z,20.85
2023-04-17T18:45:10.590Z,17.33
2023-04-17T18:47:37.741Z,18.25
2023-04-17T18:50:05.378Z,19.00
2023-04-17T18:52:36.976Z,18.95
2023-04-17T18:55:04.162Z,21.40
2023-04-17T18:57:31.313Z,21.17
2023-04-17T18:59:58.278Z,19.83
2023-04-17T19:02:25.453Z,17.75
2023-04-17T19:04:55.700Z,25.02
2023-04-17T19:07:23.744Z,20.33
2023-04-17T19:09:51.076Z,21.30
2023-04-17T19:12:18.624Z,21.50
2023-04-17T19:14:46.006Z,23.77
2023-04-17T19:17:13.433Z,23.45
2023-04-17T19:19:40.865Z,21.73
2023-04-17T19:22:08.406Z,23.30
2023-04-17T19:24:35.990Z,24.25
2023-04-17T19:27:03.396Z,27.30
2023-04-17T19:29:30.748Z,25.08
2023-04-17T19:31:58.226Z,28.08
2023-04-17T19:34:25.658Z,30.25
2023-04-17T19:36:53.108Z,28.58
2023-04-17T19:39:20.786Z,31.55
2023-04-17T19:41:52.266Z,30.77
2023-04-17T19:44:19.657Z,28.10
2023-04-17T19:46:47.175Z,27.98
2023-04-17T19:49:15.842Z,24.48
2023-04-17T19:51:43.255Z,26.17
2023-04-17T19:54:12.317Z,29.65
2023-04-17T19:56:39.643Z,28.35
2023-04-17T19:59:07.054Z,33.97
2023-04-17T20:01:35.490Z,24.15
2023-04-17T20:04:02.813Z,30.10
2023-04-17T20:06:29.842Z,31.63
2023-04-17T20:08:58.530Z,27.75
2023-04-17T20:11:26.093Z,30.38
2023-04-17T20:13:53.155Z,28.55
2023-04-17T20:16:20.241Z,32.47
2023-04-17T20:18:47.205Z,27.33
2023-04-17T20:21:14.118Z,26.88
2023-04-17T20:23:41.460Z,31.85
2023-04-17T20:26:08.447Z,27.30
2023-04-17T20:28:35.546Z,27.58
2023-04-17T20:31:03.584Z,26.63
2023-04-17T20:33:30.986Z,28.23
2023-04-17T20:35:58.038Z,30.15
2023-04-17T20:38:25.749Z,25.73
2023-04-17T20:40:52.751Z,26.20
2023-04-17T20:43:20.301Z,26.63
2023-04-17T20:45:49.586Z,25.23
2023-04-17T20:48:17.159Z,24.58
2023-04-17T20:50:44.266Z,26.20
2023-04-17T20:53:11.274Z,22.63
2023-04-17T20:55:38.826Z,22.42
2023-04-17T20:58:06.268Z,23.40
2023-04-17T21:00:34.691Z,28.85
2023-04-17T21:03:02.109Z,26.33
2023-04-17T21:05:29.275Z,25.40
2023-04-17T21:07:57.837Z,28.63
2023-04-17T21:10:24.861Z,24.55
2023-04-17T21:12:53.968Z,26.88
2023-04-17T21:15:21.100Z,23.45
2023-04-17T21:17:48.223Z,23.90
2023-04-17T21:20:15.408Z,25.35
2023-04-17T21:22:42.378Z,25.50
2023-04-17T21:25:09.730Z,24.33
2023-04-17T21:27:36.866Z,26.45
2023-04-17T21:30:04.521Z,25.00
2023-04-17T21:32:31.705Z,24.95
2023-04-17T21:34:58.821Z,22.02
2023-04-17T21:37:25.765Z,27.92
2023-04-17T21:39:52.765Z,24.88
2023-04-17T21:42:19.754Z,27.73
2023-04-17T21:44:46.700Z,26.20
2023-04-17T21:47:14.937Z,28.20
2023-04-17T21:49:42.185Z,25.55
2023-04-17T21:52:09.172Z,24.25
2023-04-17T21:54:36.189Z,28.02
2023-04-17T21:57:03.769Z,25.27
2023-04-17T21:59:30.888Z,26.92
2023-04-17T22:01:57.965Z,22.30
2023-04-17T22:05:16.316Z,23.27
2023-04-17T22:07:53.841Z,28.70
2023-04-17T22:10:21.699Z,23.92
2023-04-17T22:12:48.700Z,27.20
2023-04-17T22:15:15.720Z,24.65
2023-04-17T22:17:42.710Z,25.40
2023-04-17T22:20:10.208Z,24.52
2023-04-17T22:22:37.181Z,26.33
2023-04-17T22:25:04.486Z,24.90
2023-04-17T22:27:31.488Z,21.13
2023-04-17T22:29:58.447Z,26.05
2023-04-17T22:32:25.448Z,24.55
2023-04-17T22:34:52.478Z,23.77
2023-04-17T22:37:19.501Z,22.63
2023-04-17T22:39:46.422Z,24.85
2023-04-17T22:42:13.340Z,25.83
2023-04-17T22:44:40.350Z,23.60
2023-04-17T22:47:07.405Z,22.00
2023-04-17T22:49:38.098Z,27.15
2023-04-17T22:52:06.293Z,29.75
2023-04-17T22:54:36.683Z,26.90
2023-04-17T22:57:03.662Z,25.98
2023-04-17T22:59:30.635Z,25.33
2023-04-17T23:01:57.717Z,25.17
2023-04-17T23:04:24.801Z,24.88
2023-04-17T23:06:51.807Z,22.13
2023-04-17T23:09:18.744Z,22.75
2023-04-17T23:11:45.688Z,22.65
2023-04-17T23:14:12.798Z,23.10
2023-04-17T23:16:39.949Z,21.40
2023-04-17T23:19:06.897Z,26.02
2023-04-17T23:21:33.895Z,23.17
2023-04-17T23:24:00.834Z,26.60
2023-04-17T23:26:27.778Z,23.02
2023-04-17T23:28:54.794Z,21.02
2023-04-17T23:31:21.858Z,22.88
2023-04-17T23:33:48.812Z,18.05
2023-04-17T23:36:15.803Z,20.45
2023-04-17T23:38:42.734Z,18.13
2023-04-17T23:41:09.833Z,20.92
2023-04-17T23:43:36.938Z,17.77
2023-04-17T23:46:03.872Z,19.30
2023-04-17T23:48:30.841Z,21.13
2023-04-17T23:50:57.821Z,17.77
2023-04-17T23:53:24.777Z,19.20
2023-04-17T23:55:51.921Z,15.95
2023-04-17T23:58:18.891Z,17.20
